63.5°F
Current conditions from King Hill
Updated every 5 minutes
 
  Wednesday September 3, 2014

Station Historical Data
Daily Summary for June 8, 2012 Units:  Both    English   Metric
« Previous Day
Next Day »
Daily Weekly Monthly Yearly Custom
  High: Low: Average:
Temperature: 71.7 °F /  22.1 °C 50.8 °F /  10.4 °C 60.1 °F /  15.6 °C
Dew Point: 58.9 °F /  14.9 °C 45.8 °F /  7.7 °C 52.8 °F /  11.6 °C
Humidity: 93% 51% 78%
Wind Speed: 9.0mph /  14.5km/h - 2.3mph /  3.7km/h
Wind Gust: 19.0mph /  30.6km/h - -
Wind- - SW
Pressure: 29.86 in /  1011.1 hPa 29.67 in /  1004.6 hPa -
Precipitation: 0.28 in /  7.1 mm    
Historical Graphs
 
 
Tabular Data for June 8, 2012
Time Temperature Dew Point Pressure Wind Wind Speed Wind Gust Humidity Daily Rainfall
00:04 52.8 °F /  11.6 °C 45.8 °F /  7.7 °C 29.85in /  1010.7hPa Calm   6.0mph /  9.7km/h 77% 0.00in /  0mm
00:09 53.2 °F /  11.8 °C 45.8 °F /  7.7 °C 29.85in /  1010.7hPa Calm   6.0mph /  9.7km/h 76% 0.00in /  0mm
00:14 53.4 °F /  11.9 °C 46.0 °F /  7.8 °C 29.85in /  1010.7hPa Calm   4.0mph /  6.4km/h 76% 0.00in /  0mm
00:19 53.3 °F /  11.8 °C 46.3 °F /  7.9 °C 29.85in /  1010.7hPa Calm   1.0mph /  1.6km/h 77% 0.00in /  0mm
00:24 53.1 °F /  11.7 °C 46.4 °F /  8 °C 29.85in /  1010.7hPa Calm   4.0mph /  6.4km/h 78% 0.00in /  0mm
00:29 53.1 °F /  11.7 °C 46.4 °F /  8 °C 29.85in /  1010.7hPa Calm   4.0mph /  6.4km/h 78% 0.00in /  0mm
00:34 53.6 °F /  12 °C 46.9 °F /  8.3 °C 29.85in /  1010.7hPa SW 1.0mph /  1.6km/h 5.0mph /  8km/h 78% 0.00in /  0mm
00:39 54.2 °F /  12.3 °C 47.5 °F /  8.6 °C 29.85in /  1010.7hPa Calm   5.0mph /  8km/h 78% 0.00in /  0mm
00:44 55.1 °F /  12.8 °C 48.4 °F /  9.1 °C 29.85in /  1010.7hPa SSW 2.0mph /  3.2km/h 7.0mph /  11.3km/h 78% 0.00in /  0mm
00:49 55.9 °F /  13.3 °C 49.1 °F /  9.5 °C 29.86in /  1011.1hPa SW 1.0mph /  1.6km/h 7.0mph /  11.3km/h 78% 0.00in /  0mm
00:54 56.6 °F /  13.7 °C 49.5 °F /  9.7 °C 29.86in /  1011.1hPa WSW 1.0mph /  1.6km/h 7.0mph /  11.3km/h 77% 0.00in /  0mm
00:59 57.2 °F /  14 °C 50.1 °F /  10.1 °C 29.86in /  1011.1hPa WSW 2.0mph /  3.2km/h 7.0mph /  11.3km/h 77% 0.00in /  0mm
01:04 58.0 °F /  14.4 °C 50.5 °F /  10.3 °C 29.85in /  1010.7hPa WSW 4.0mph /  6.4km/h 9.0mph /  14.5km/h 76% 0.00in /  0mm
01:09 58.3 °F /  14.6 °C 50.4 °F /  10.2 °C 29.85in /  1010.7hPa Calm   9.0mph /  14.5km/h 75% 0.00in /  0mm
01:14 58.2 °F /  14.6 °C 50.0 °F /  10 °C 29.85in /  1010.7hPa Calm   5.0mph /  8km/h 74% 0.00in /  0mm
01:19 58.1 °F /  14.5 °C 49.9 °F /  9.9 °C 29.84in /  1010.4hPa Calm   7.0mph /  11.3km/h 74% 0.00in /  0mm
01:24 57.8 °F /  14.3 °C 49.6 °F /  9.8 °C 29.84in /  1010.4hPa Calm   7.0mph /  11.3km/h 74% 0.00in /  0mm
01:29 57.5 °F /  14.2 °C 49.6 °F /  9.8 °C 29.84in /  1010.4hPa SW 1.0mph /  1.6km/h 4.0mph /  6.4km/h 75% 0.00in /  0mm
01:34 57.2 °F /  14 °C 49.4 °F /  9.7 °C 29.84in /  1010.4hPa Calm   4.0mph /  6.4km/h 75% 0.00in /  0mm
01:39 56.9 °F /  13.8 °C 49.4 °F /  9.7 °C 29.83in /  1010hPa Calm   1.0mph /  1.6km/h 76% 0.00in /  0mm
01:44 56.6 °F /  13.7 °C 49.1 °F /  9.5 °C 29.83in /  1010hPa Calm   1.0mph /  1.6km/h 76% 0.00in /  0mm
01:49 56.2 °F /  13.4 °C 49.1 °F /  9.5 °C 29.84in /  1010.4hPa Calm   4.0mph /  6.4km/h 77% 0.00in /  0mm
01:54 55.7 °F /  13.2 °C 49.0 °F /  9.4 °C 29.83in /  1010hPa Calm   4.0mph /  6.4km/h 78% 0.00in /  0mm
01:59 55.3 °F /  12.9 °C 48.6 °F /  9.2 °C 29.83in /  1010hPa Calm   4.0mph /  6.4km/h 78% 0.00in /  0mm
02:04 55.0 °F /  12.8 °C 48.6 °F /  9.2 °C 29.83in /  1010hPa Calm   1.0mph /  1.6km/h 79% 0.00in /  0mm
02:09 54.8 °F /  12.7 °C 48.8 °F /  9.3 °C 29.82in /  1009.7hPa Calm   1.0mph /  1.6km/h 80% 0.00in /  0mm
02:14 54.7 °F /  12.6 °C 48.7 °F /  9.3 °C 29.82in /  1009.7hPa Calm   2.0mph /  3.2km/h 80% 0.00in /  0mm
02:19 54.7 °F /  12.6 °C 48.7 °F /  9.3 °C 29.83in /  1010hPa Calm   4.0mph /  6.4km/h 80% 0.00in /  0mm
02:24 54.6 °F /  12.6 °C 48.6 °F /  9.2 °C 29.83in /  1010hPa Calm   4.0mph /  6.4km/h 80% 0.00in /  0mm
02:29 54.4 °F /  12.4 °C 48.4 °F /  9.1 °C 29.83in /  1010hPa Calm   1.0mph /  1.6km/h 80% 0.00in /  0mm
02:34 54.2 °F /  12.3 °C 48.5 °F /  9.2 °C 29.82in /  1009.7hPa Calm   1.0mph /  1.6km/h 81% 0.00in /  0mm
02:44 54.0 °F /  12.2 °C 48.6 °F /  9.2 °C 29.82in /  1009.7hPa Calm     82% 0.00in /  0mm
02:49 53.8 °F /  12.1 °C 48.4 °F /  9.1 °C 29.82in /  1009.7hPa Calm     82% 0.00in /  0mm
02:54 53.5 °F /  11.9 °C 48.1 °F /  8.9 °C 29.82in /  1009.7hPa Calm     82% 0.00in /  0mm
02:59 53.3 °F /  11.8 °C 48.3 °F /  9.1 °C 29.82in /  1009.7hPa Calm     83% 0.00in /  0mm
03:04 53.0 °F /  11.7 °C 48.3 °F /  9.1 °C 29.82in /  1009.7hPa Calm     84% 0.00in /  0mm
03:09 52.7 °F /  11.5 °C 48.0 °F /  8.9 °C 29.81in /  1009.4hPa Calm     84% 0.00in /  0mm
03:14 52.4 °F /  11.3 °C 48.0 °F /  8.9 °C 29.81in /  1009.4hPa Calm     85% 0.00in /  0mm
03:19 52.3 °F /  11.3 °C 48.2 °F /  9 °C 29.81in /  1009.4hPa Calm     86% 0.00in /  0mm
03:24 52.2 °F /  11.2 °C 48.1 °F /  8.9 °C 29.81in /  1009.4hPa Calm     86% 0.00in /  0mm
03:29 52.3 °F /  11.3 °C 48.2 °F /  9 °C 29.81in /  1009.4hPa Calm     86% 0.00in /  0mm
03:34 52.3 °F /  11.3 °C 48.2 °F /  9 °C 29.81in /  1009.4hPa Calm     86% 0.00in /  0mm
03:39 52.2 °F /  11.2 °C 48.1 °F /  8.9 °C 29.81in /  1009.4hPa Calm     86% 0.00in /  0mm
03:44 52.1 °F /  11.2 °C 47.7 °F /  8.7 °C 29.81in /  1009.4hPa Calm     85% 0.00in /  0mm
03:49 52.0 °F /  11.1 °C 47.9 °F /  8.8 °C 29.81in /  1009.4hPa Calm     86% 0.00in /  0mm
03:54 51.9 °F /  11.1 °C 47.8 °F /  8.8 °C 29.81in /  1009.4hPa Calm     86% 0.00in /  0mm
03:59 51.9 °F /  11.1 °C 47.8 °F /  8.8 °C 29.81in /  1009.4hPa Calm     86% 0.00in /  0mm
04:04 51.8 °F /  11 °C 47.7 °F /  8.7 °C 29.81in /  1009.4hPa Calm     86% 0.00in /  0mm
04:09 51.6 °F /  10.9 °C 47.6 °F /  8.7 °C 29.81in /  1009.4hPa Calm     86% 0.00in /  0mm
04:14 51.6 °F /  10.9 °C 47.9 °F /  8.8 °C 29.81in /  1009.4hPa Calm     87% 0.00in /  0mm
04:19 51.7 °F /  10.9 °C 48.0 °F /  8.9 °C 29.81in /  1009.4hPa SSW 1.0mph /  1.6km/h 3.0mph /  4.8km/h 87% 0.00in /  0mm
04:24 51.7 °F /  10.9 °C 48.0 °F /  8.9 °C 29.80in /  1009hPa Calm   3.0mph /  4.8km/h 87% 0.00in /  0mm
04:29 51.6 °F /  10.9 °C 47.9 °F /  8.8 °C 29.81in /  1009.4hPa Calm     87% 0.00in /  0mm
04:34 51.7 °F /  10.9 °C 48.0 °F /  8.9 °C 29.80in /  1009hPa Calm     87% 0.00in /  0mm
04:39 51.8 °F /  11 °C 48.1 °F /  8.9 °C 29.80in /  1009hPa Calm     87% 0.00in /  0mm
04:44 52.0 °F /  11.1 °C 48.3 °F /  9.1 °C 29.80in /  1009hPa Calm   5.0mph /  8km/h 87% 0.00in /  0mm
04:49 52.3 °F /  11.3 °C 48.5 °F /  9.2 °C 29.81in /  1009.4hPa Calm   5.0mph /  8km/h 87% 0.00in /  0mm
04:54 52.2 °F /  11.2 °C 48.1 °F /  8.9 °C 29.81in /  1009.4hPa Calm     86% 0.00in /  0mm
04:59 52.1 °F /  11.2 °C 48.0 °F /  8.9 °C 29.81in /  1009.4hPa Calm     86% 0.00in /  0mm
05:04 52.0 °F /  11.1 °C 47.9 °F /  8.8 °C 29.81in /  1009.4hPa Calm   1.0mph /  1.6km/h 86% 0.00in /  0mm
05:09 51.9 °F /  11.1 °C 47.8 °F /  8.8 °C 29.81in /  1009.4hPa Calm   1.0mph /  1.6km/h 86% 0.00in /  0mm
05:14 51.8 °F /  11 °C 47.7 °F /  8.7 °C 29.81in /  1009.4hPa Calm     86% 0.00in /  0mm
05:19 51.7 °F /  10.9 °C 47.7 °F /  8.7 °C 29.81in /  1009.4hPa Calm     86% 0.00in /  0mm
05:24 51.9 °F /  11.1 °C 48.2 °F /  9 °C 29.81in /  1009.4hPa Calm     87% 0.00in /  0mm
05:29 52.1 °F /  11.2 °C 48.0 °F /  8.9 °C 29.81in /  1009.4hPa Calm   1.0mph /  1.6km/h 86% 0.00in /  0mm
05:34 52.3 °F /  11.3 °C 48.2 °F /  9 °C 29.82in /  1009.7hPa Calm   1.0mph /  1.6km/h 86% 0.00in /  0mm
05:39 52.5 °F /  11.4 °C 48.4 °F /  9.1 °C 29.82in /  1009.7hPa Calm   1.0mph /  1.6km/h 86% 0.00in /  0mm
05:44 52.6 °F /  11.4 °C 48.5 °F /  9.2 °C 29.82in /  1009.7hPa Calm     86% 0.00in /  0mm
05:49 52.7 °F /  11.5 °C 48.3 °F /  9.1 °C 29.82in /  1009.7hPa Calm   5.0mph /  8km/h 85% 0.00in /  0mm
05:54 52.8 °F /  11.6 °C 48.4 °F /  9.1 °C 29.82in /  1009.7hPa SW 1.0mph /  1.6km/h 5.0mph /  8km/h 85% 0.00in /  0mm
06:04 53.1 °F /  11.7 °C 48.7 °F /  9.3 °C 29.82in /  1009.7hPa Calm   6.0mph /  9.7km/h 85% 0.00in /  0mm
06:09 53.2 °F /  11.8 °C 48.5 °F /  9.2 °C 29.82in /  1009.7hPa Calm   6.0mph /  9.7km/h 84% 0.00in /  0mm
06:14 53.2 °F /  11.8 °C 48.5 °F /  9.2 °C 29.81in /  1009.4hPa SSW 1.0mph /  1.6km/h 5.0mph /  8km/h 84% 0.00in /  0mm
06:19 53.4 °F /  11.9 °C 48.7 °F /  9.3 °C 29.81in /  1009.4hPa SW 3.0mph /  4.8km/h 7.0mph /  11.3km/h 84% 0.00in /  0mm
06:24 53.5 °F /  11.9 °C 48.8 °F /  9.3 °C 29.81in /  1009.4hPa SW 3.0mph /  4.8km/h 7.0mph /  11.3km/h 84% 0.00in /  0mm
06:29 53.7 °F /  12.1 °C 49.0 °F /  9.4 °C 29.81in /  1009.4hPa SW 3.0mph /  4.8km/h 8.0mph /  12.9km/h 84% 0.00in /  0mm
06:34 54.0 °F /  12.2 °C 49.3 °F /  9.6 °C 29.81in /  1009.4hPa SSW 3.0mph /  4.8km/h 9.0mph /  14.5km/h 84% 0.00in /  0mm
06:39 54.4 °F /  12.4 °C 49.3 °F /  9.6 °C 29.82in /  1009.7hPa SW 4.0mph /  6.4km/h 9.0mph /  14.5km/h 83% 0.00in /  0mm
06:44 54.8 °F /  12.7 °C 49.7 °F /  9.8 °C 29.82in /  1009.7hPa SSW 3.0mph /  4.8km/h 8.0mph /  12.9km/h 83% 0.00in /  0mm
06:49 55.1 °F /  12.8 °C 50.0 °F /  10 °C 29.82in /  1009.7hPa SSW 2.0mph /  3.2km/h 8.0mph /  12.9km/h 83% 0.00in /  0mm
06:54 55.4 °F /  13 °C 50.0 °F /  10 °C 29.82in /  1009.7hPa SW 2.0mph /  3.2km/h 6.0mph /  9.7km/h 82% 0.00in /  0mm
06:59 55.7 °F /  13.2 °C 50.3 °F /  10.2 °C 29.82in /  1009.7hPa SW 3.0mph /  4.8km/h 11.0mph /  17.7km/h 82% 0.00in /  0mm
07:04 56.1 °F /  13.4 °C 50.7 °F /  10.4 °C 29.82in /  1009.7hPa SSW 2.0mph /  3.2km/h 11.0mph /  17.7km/h 82% 0.00in /  0mm
07:09 56.5 °F /  13.6 °C 50.7 °F /  10.4 °C 29.82in /  1009.7hPa SSW 5.0mph /  8km/h 10.0mph /  16.1km/h 81% 0.00in /  0mm
07:14 56.9 °F /  13.8 °C 51.1 °F /  10.6 °C 29.82in /  1009.7hPa SSW 5.0mph /  8km/h 10.0mph /  16.1km/h 81% 0.00in /  0mm
07:19 57.3 °F /  14.1 °C 51.5 °F /  10.8 °C 29.82in /  1009.7hPa SW 3.0mph /  4.8km/h 10.0mph /  16.1km/h 81% 0.00in /  0mm
07:24 57.7 °F /  14.3 °C 51.6 °F /  10.9 °C 29.82in /  1009.7hPa SW 2.0mph /  3.2km/h 7.0mph /  11.3km/h 80% 0.00in /  0mm
07:29 58.0 °F /  14.4 °C 51.9 °F /  11.1 °C 29.82in /  1009.7hPa Calm   7.0mph /  11.3km/h 80% 0.00in /  0mm
07:34 58.4 °F /  14.7 °C 51.9 °F /  11.1 °C 29.82in /  1009.7hPa SSW 2.0mph /  3.2km/h 9.0mph /  14.5km/h 79% 0.00in /  0mm
07:39 58.7 °F /  14.8 °C 51.9 °F /  11.1 °C 29.82in /  1009.7hPa SW 2.0mph /  3.2km/h 12.0mph /  19.3km/h 78% 0.00in /  0mm
07:44 59.0 °F /  15 °C 52.5 °F /  11.4 °C 29.82in /  1009.7hPa SSW 2.0mph /  3.2km/h 12.0mph /  19.3km/h 79% 0.00in /  0mm
07:49 59.0 °F /  15 °C 52.2 °F /  11.2 °C 29.81in /  1009.4hPa SW 3.0mph /  4.8km/h 8.0mph /  12.9km/h 78% 0.00in /  0mm
07:54 59.3 °F /  15.2 °C 52.1 °F /  11.2 °C 29.82in /  1009.7hPa SSW 3.0mph /  4.8km/h 9.0mph /  14.5km/h 77% 0.00in /  0mm
07:59 59.7 °F /  15.4 °C 52.5 °F /  11.4 °C 29.82in /  1009.7hPa South 1.0mph /  1.6km/h 10.0mph /  16.1km/h 77% 0.00in /  0mm
08:04 60.2 °F /  15.7 °C 52.6 °F /  11.4 °C 29.82in /  1009.7hPa SSW 3.0mph /  4.8km/h 10.0mph /  16.1km/h 76% 0.00in /  0mm
08:09 60.7 °F /  15.9 °C 53.1 °F /  11.7 °C 29.82in /  1009.7hPa SSW 1.0mph /  1.6km/h 10.0mph /  16.1km/h 76% 0.00in /  0mm
08:14 61.3 °F /  16.3 °C 53.3 °F /  11.8 °C 29.82in /  1009.7hPa SSW 2.0mph /  3.2km/h 10.0mph /  16.1km/h 75% 0.00in /  0mm
08:19 61.9 °F /  16.6 °C 53.9 °F /  12.2 °C 29.82in /  1009.7hPa SW 2.0mph /  3.2km/h 10.0mph /  16.1km/h 75% 0.00in /  0mm
08:24 62.4 °F /  16.9 °C 53.6 °F /  12 °C 29.82in /  1009.7hPa SSW 3.0mph /  4.8km/h 9.0mph /  14.5km/h 73% 0.00in /  0mm
08:29 62.6 °F /  17 °C 53.8 °F /  12.1 °C 29.81in /  1009.4hPa SSW 1.0mph /  1.6km/h 9.0mph /  14.5km/h 73% 0.00in /  0mm
08:34 62.9 °F /  17.2 °C 54.1 °F /  12.3 °C 29.81in /  1009.4hPa SW 2.0mph /  3.2km/h 10.0mph /  16.1km/h 73% 0.00in /  0mm
08:39 63.3 °F /  17.4 °C 54.5 °F /  12.5 °C 29.81in /  1009.4hPa SSW 5.0mph /  8km/h 10.0mph /  16.1km/h 73% 0.00in /  0mm
08:44 63.7 °F /  17.6 °C 54.5 °F /  12.5 °C 29.81in /  1009.4hPa SSW 2.0mph /  3.2km/h 10.0mph /  16.1km/h 72% 0.00in /  0mm
08:49 64.4 °F /  18 °C 54.8 °F /  12.7 °C 29.81in /  1009.4hPa SW 5.0mph /  8km/h 11.0mph /  17.7km/h 71% 0.00in /  0mm
08:54 64.7 °F /  18.2 °C 55.1 °F /  12.8 °C 29.81in /  1009.4hPa SSW 3.0mph /  4.8km/h 11.0mph /  17.7km/h 71% 0.00in /  0mm
08:59 65.2 °F /  18.4 °C 56.0 °F /  13.3 °C 29.81in /  1009.4hPa Calm   10.0mph /  16.1km/h 72% 0.00in /  0mm
09:04 65.2 °F /  18.4 °C 54.8 °F /  12.7 °C 29.80in /  1009hPa SW 5.0mph /  8km/h 10.0mph /  16.1km/h 69% 0.00in /  0mm
09:09 64.9 °F /  18.3 °C 55.3 °F /  12.9 °C 29.80in /  1009hPa Calm   11.0mph /  17.7km/h 71% 0.00in /  0mm
09:14 65.0 °F /  18.3 °C 55.0 °F /  12.8 °C 29.80in /  1009hPa SSW 1.0mph /  1.6km/h 11.0mph /  17.7km/h 70% 0.00in /  0mm
09:19 65.5 °F /  18.6 °C 55.5 °F /  13.1 °C 29.80in /  1009hPa SSW 1.0mph /  1.6km/h 7.0mph /  11.3km/h 70% 0.00in /  0mm
09:24 65.5 °F /  18.6 °C 55.9 °F /  13.3 °C 29.80in /  1009hPa SW 1.0mph /  1.6km/h 7.0mph /  11.3km/h 71% 0.00in /  0mm
09:29 65.8 °F /  18.8 °C 56.1 °F /  13.4 °C 29.80in /  1009hPa SW 1.0mph /  1.6km/h 8.0mph /  12.9km/h 71% 0.00in /  0mm
09:34 66.0 °F /  18.9 °C 55.9 °F /  13.3 °C 29.80in /  1009hPa Calm   8.0mph /  12.9km/h 70% 0.00in /  0mm
09:39 65.8 °F /  18.8 °C 55.0 °F /  12.8 °C 29.80in /  1009hPa SSW 4.0mph /  6.4km/h 8.0mph /  12.9km/h 68% 0.00in /  0mm
09:44 65.3 °F /  18.5 °C 54.9 °F /  12.7 °C 29.80in /  1009hPa Calm   8.0mph /  12.9km/h 69% 0.00in /  0mm
09:49 65.0 °F /  18.3 °C 55.0 °F /  12.8 °C 29.80in /  1009hPa SW 2.0mph /  3.2km/h 7.0mph /  11.3km/h 70% 0.00in /  0mm
09:54 65.2 °F /  18.4 °C 55.6 °F /  13.1 °C 29.80in /  1009hPa SSW 3.0mph /  4.8km/h 9.0mph /  14.5km/h 71% 0.00in /  0mm
09:59 66.1 °F /  18.9 °C 56.4 °F /  13.6 °C 29.79in /  1008.7hPa SW 2.0mph /  3.2km/h 9.0mph /  14.5km/h 71% 0.00in /  0mm
10:04 67.6 °F /  19.8 °C 57.9 °F /  14.4 °C 29.79in /  1008.7hPa SSW 1.0mph /  1.6km/h 7.0mph /  11.3km/h 71% 0.00in /  0mm
10:09 68.2 °F /  20.1 °C 57.2 °F /  14 °C 29.79in /  1008.7hPa SW 2.0mph /  3.2km/h 8.0mph /  12.9km/h 68% 0.00in /  0mm
10:14 68.4 °F /  20.2 °C 56.2 °F /  13.4 °C 29.79in /  1008.7hPa SSW 4.0mph /  6.4km/h 8.0mph /  12.9km/h 65% 0.00in /  0mm
10:24 68.1 °F /  20.1 °C 56.3 °F /  13.5 °C 29.79in /  1008.7hPa SSW 3.0mph /  4.8km/h 8.0mph /  12.9km/h 66% 0.00in /  0mm
10:29 68.0 °F /  20 °C 56.2 °F /  13.4 °C 29.79in /  1008.7hPa SW 2.0mph /  3.2km/h 8.0mph /  12.9km/h 66% 0.00in /  0mm
10:39 68.7 °F /  20.4 °C 58.5 °F /  14.7 °C 29.78in /  1008.4hPa SW 1.0mph /  1.6km/h 8.0mph /  12.9km/h 70% 0.00in /  0mm
10:44 69.1 °F /  20.6 °C 57.3 °F /  14.1 °C 29.78in /  1008.4hPa South 2.0mph /  3.2km/h 8.0mph /  12.9km/h 66% 0.00in /  0mm
10:49 68.7 °F /  20.4 °C 56.5 °F /  13.6 °C 29.78in /  1008.4hPa South 4.0mph /  6.4km/h 10.0mph /  16.1km/h 65% 0.00in /  0mm
10:54 68.8 °F /  20.4 °C 57.4 °F /  14.1 °C 29.77in /  1008hPa SW 1.0mph /  1.6km/h 10.0mph /  16.1km/h 67% 0.00in /  0mm
10:59 69.2 °F /  20.7 °C 56.9 °F /  13.8 °C 29.77in /  1008hPa SW 1.0mph /  1.6km/h 9.0mph /  14.5km/h 65% 0.00in /  0mm
11:04 69.2 °F /  20.7 °C 56.1 °F /  13.4 °C 29.77in /  1008hPa SSW 4.0mph /  6.4km/h 9.0mph /  14.5km/h 63% 0.00in /  0mm
11:09 68.8 °F /  20.4 °C 56.6 °F /  13.7 °C 29.77in /  1008hPa SSW 4.0mph /  6.4km/h 11.0mph /  17.7km/h 65% 0.00in /  0mm
11:14 68.9 °F /  20.5 °C 56.2 °F /  13.4 °C 29.77in /  1008hPa SSW 6.0mph /  9.7km/h 12.0mph /  19.3km/h 64% 0.00in /  0mm
11:19 69.0 °F /  20.6 °C 57.6 °F /  14.2 °C 29.77in /  1008hPa Calm   14.0mph /  22.5km/h 67% 0.00in /  0mm
11:24 69.7 °F /  20.9 °C 57.8 °F /  14.3 °C 29.77in /  1008hPa SW 1.0mph /  1.6km/h 14.0mph /  22.5km/h 66% 0.00in /  0mm
11:29 70.5 °F /  21.4 °C 58.2 °F /  14.6 °C 29.77in /  1008hPa SW 1.0mph /  1.6km/h 10.0mph /  16.1km/h 65% 0.00in /  0mm
11:34 70.8 °F /  21.6 °C 57.6 °F /  14.2 °C 29.77in /  1008hPa SSW 5.0mph /  8km/h 11.0mph /  17.7km/h 63% 0.00in /  0mm
11:39 70.5 °F /  21.4 °C 56.4 °F /  13.6 °C 29.77in /  1008hPa SW 4.0mph /  6.4km/h 15.0mph /  24.1km/h 61% 0.00in /  0mm
11:44 70.4 °F /  21.3 °C 57.7 °F /  14.3 °C 29.76in /  1007.7hPa SW 1.0mph /  1.6km/h 15.0mph /  24.1km/h 64% 0.00in /  0mm
11:49 70.4 °F /  21.3 °C 58.1 °F /  14.5 °C 29.76in /  1007.7hPa Calm   12.0mph /  19.3km/h 65% 0.00in /  0mm
11:54 70.7 °F /  21.5 °C 57.9 °F /  14.4 °C 29.77in /  1008hPa SW 3.0mph /  4.8km/h 11.0mph /  17.7km/h 64% 0.00in /  0mm
11:59 71.1 °F /  21.7 °C 58.3 °F /  14.6 °C 29.76in /  1007.7hPa SSW 1.0mph /  1.6km/h 9.0mph /  14.5km/h 64% 0.00in /  0mm
12:04 70.9 °F /  21.6 °C 56.8 °F /  13.8 °C 29.76in /  1007.7hPa SSW 3.0mph /  4.8km/h 10.0mph /  16.1km/h 61% 0.00in /  0mm
12:09 70.6 °F /  21.4 °C 57.4 °F /  14.1 °C 29.76in /  1007.7hPa SW 2.0mph /  3.2km/h 10.0mph /  16.1km/h 63% 0.00in /  0mm
12:14 70.6 °F /  21.4 °C 58.3 °F /  14.6 °C 29.76in /  1007.7hPa SSW 2.0mph /  3.2km/h 8.0mph /  12.9km/h 65% 0.00in /  0mm
12:19 70.5 °F /  21.4 °C 57.3 °F /  14.1 °C 29.76in /  1007.7hPa SW 3.0mph /  4.8km/h 10.0mph /  16.1km/h 63% 0.00in /  0mm
12:29 70.2 °F /  21.2 °C 57.5 °F /  14.2 °C 29.76in /  1007.7hPa Calm   9.0mph /  14.5km/h 64% 0.00in /  0mm
12:34 70.4 °F /  21.3 °C 57.2 °F /  14 °C 29.76in /  1007.7hPa SW 3.0mph /  4.8km/h 8.0mph /  12.9km/h 63% 0.00in /  0mm
12:39 70.5 °F /  21.4 °C 57.8 °F /  14.3 °C 29.76in /  1007.7hPa SW 1.0mph /  1.6km/h 9.0mph /  14.5km/h 64% 0.00in /  0mm
12:44 70.2 °F /  21.2 °C 57.5 °F /  14.2 °C 29.76in /  1007.7hPa Calm   12.0mph /  19.3km/h 64% 0.00in /  0mm
12:49 70.2 °F /  21.2 °C 58.7 °F /  14.8 °C 29.76in /  1007.7hPa WSW 3.0mph /  4.8km/h 12.0mph /  19.3km/h 67% 0.00in /  0mm
12:54 70.1 °F /  21.2 °C 57.4 °F /  14.1 °C 29.76in /  1007.7hPa SW 2.0mph /  3.2km/h 9.0mph /  14.5km/h 64% 0.00in /  0mm
12:59 70.1 °F /  21.2 °C 58.2 °F /  14.6 °C 29.76in /  1007.7hPa SSW 2.0mph /  3.2km/h 9.0mph /  14.5km/h 66% 0.00in /  0mm
13:04 70.0 °F /  21.1 °C 56.4 °F /  13.6 °C 29.76in /  1007.7hPa SSW 3.0mph /  4.8km/h 9.0mph /  14.5km/h 62% 0.00in /  0mm
13:09 70.1 °F /  21.2 °C 58.2 °F /  14.6 °C 29.76in /  1007.7hPa SSW 1.0mph /  1.6km/h 13.0mph /  20.9km/h 66% 0.00in /  0mm
13:14 70.5 °F /  21.4 °C 58.6 °F /  14.8 °C 29.76in /  1007.7hPa SW 1.0mph /  1.6km/h 13.0mph /  20.9km/h 66% 0.00in /  0mm
13:19 70.5 °F /  21.4 °C 57.3 °F /  14.1 °C 29.75in /  1007.3hPa SW 2.0mph /  3.2km/h 7.0mph /  11.3km/h 63% 0.00in /  0mm
13:24 70.8 °F /  21.6 °C 58.9 °F /  14.9 °C 29.75in /  1007.3hPa Calm   6.0mph /  9.7km/h 66% 0.00in /  0mm
13:29 70.7 °F /  21.5 °C 57.5 °F /  14.2 °C 29.76in /  1007.7hPa Calm   5.0mph /  8km/h 63% 0.00in /  0mm
13:34 70.2 °F /  21.2 °C 57.0 °F /  13.9 °C 29.75in /  1007.3hPa West 1.0mph /  1.6km/h 6.0mph /  9.7km/h 63% 0.00in /  0mm
13:39 69.6 °F /  20.9 °C 56.9 °F /  13.8 °C 29.76in /  1007.7hPa West 1.0mph /  1.6km/h 8.0mph /  12.9km/h 64% 0.00in /  0mm
13:44 69.3 °F /  20.7 °C 57.0 °F /  13.9 °C 29.76in /  1007.7hPa Calm   8.0mph /  12.9km/h 65% 0.00in /  0mm
13:49 68.9 °F /  20.5 °C 57.5 °F /  14.2 °C 29.76in /  1007.7hPa Calm   8.0mph /  12.9km/h 67% 0.00in /  0mm
13:54 68.5 °F /  20.3 °C 57.5 °F /  14.2 °C 29.76in /  1007.7hPa West 1.0mph /  1.6km/h 8.0mph /  12.9km/h 68% 0.00in /  0mm
13:59 68.3 °F /  20.2 °C 57.3 °F /  14.1 °C 29.76in /  1007.7hPa WNW 4.0mph /  6.4km/h 8.0mph /  12.9km/h 68% 0.00in /  0mm
14:04 68.1 °F /  20.1 °C 57.2 °F /  14 °C 29.76in /  1007.7hPa West 3.0mph /  4.8km/h 8.0mph /  12.9km/h 68% 0.00in /  0mm
14:09 68.0 °F /  20 °C 57.5 °F /  14.2 °C 29.76in /  1007.7hPa SW 1.0mph /  1.6km/h 8.0mph /  12.9km/h 69% 0.00in /  0mm
14:14 67.9 °F /  19.9 °C 57.4 °F /  14.1 °C 29.76in /  1007.7hPa Calm   6.0mph /  9.7km/h 69% 0.00in /  0mm
14:19 67.7 °F /  19.8 °C 57.2 °F /  14 °C 29.76in /  1007.7hPa WNW 3.0mph /  4.8km/h 8.0mph /  12.9km/h 69% 0.00in /  0mm
14:24 67.5 °F /  19.7 °C 57.8 °F /  14.3 °C 29.76in /  1007.7hPa NW 3.0mph /  4.8km/h 8.0mph /  12.9km/h 71% 0.00in /  0mm
14:29 67.3 °F /  19.6 °C 56.8 °F /  13.8 °C 29.76in /  1007.7hPa NW 4.0mph /  6.4km/h 12.0mph /  19.3km/h 69% 0.00in /  0mm
14:34 67.1 °F /  19.5 °C 56.2 °F /  13.4 °C 29.76in /  1007.7hPa NW 5.0mph /  8km/h 12.0mph /  19.3km/h 68% 0.00in /  0mm
14:39 66.9 °F /  19.4 °C 56.0 °F /  13.3 °C 29.75in /  1007.3hPa WNW 3.0mph /  4.8km/h 11.0mph /  17.7km/h 68% 0.00in /  0mm
14:49 67.4 °F /  19.7 °C 56.1 °F /  13.4 °C 29.74in /  1007hPa NNW 3.0mph /  4.8km/h 6.0mph /  9.7km/h 67% 0.00in /  0mm
14:54 67.7 °F /  19.8 °C 54.2 °F /  12.3 °C 29.73in /  1006.7hPa Calm   6.0mph /  9.7km/h 62% 0.00in /  0mm
14:59 67.8 °F /  19.9 °C 55.2 °F /  12.9 °C 29.73in /  1006.7hPa Calm   3.0mph /  4.8km/h 64% 0.00in /  0mm
15:04 67.8 °F /  19.9 °C 55.2 °F /  12.9 °C 29.72in /  1006.3hPa Calm   3.0mph /  4.8km/h 64% 0.00in /  0mm
15:09 67.8 °F /  19.9 °C 54.8 °F /  12.7 °C 29.72in /  1006.3hPa Calm   1.0mph /  1.6km/h 63% 0.00in /  0mm
15:14 68.2 °F /  20.1 °C 56.0 °F /  13.3 °C 29.71in /  1006hPa Calm     65% 0.00in /  0mm
15:19 68.8 °F /  20.4 °C 57.0 °F /  13.9 °C 29.71in /  1006hPa Calm   1.0mph /  1.6km/h 66% 0.00in /  0mm
15:24 68.9 °F /  20.5 °C 54.5 °F /  12.5 °C 29.71in /  1006hPa Calm   1.0mph /  1.6km/h 60% 0.00in /  0mm
15:29 68.9 °F /  20.5 °C 55.8 °F /  13.2 °C 29.71in /  1006hPa Calm   1.0mph /  1.6km/h 63% 0.00in /  0mm
15:34 68.9 °F /  20.5 °C 56.7 °F /  13.7 °C 29.71in /  1006hPa Calm     65% 0.00in /  0mm
15:39 69.0 °F /  20.6 °C 56.8 °F /  13.8 °C 29.70in /  1005.6hPa SW 1.0mph /  1.6km/h 3.0mph /  4.8km/h 65% 0.00in /  0mm
15:44 69.2 °F /  20.7 °C 56.5 °F /  13.6 °C 29.70in /  1005.6hPa Calm   3.0mph /  4.8km/h 64% 0.00in /  0mm
15:49 69.4 °F /  20.8 °C 57.1 °F /  13.9 °C 29.70in /  1005.6hPa Calm   2.0mph /  3.2km/h 65% 0.00in /  0mm
15:54 69.2 °F /  20.7 °C 53.3 °F /  11.8 °C 29.70in /  1005.6hPa Calm   5.0mph /  8km/h 57% 0.00in /  0mm
15:59 69.5 °F /  20.8 °C 53.6 °F /  12 °C 29.70in /  1005.6hPa Calm   5.0mph /  8km/h 57% 0.00in /  0mm
16:04 69.9 °F /  21.1 °C 54.9 °F /  12.7 °C 29.70in /  1005.6hPa SW 1.0mph /  1.6km/h 5.0mph /  8km/h 59% 0.00in /  0mm
16:09 69.9 °F /  21.1 °C 54.9 °F /  12.7 °C 29.70in /  1005.6hPa Calm   5.0mph /  8km/h 59% 0.00in /  0mm
16:14 70.1 °F /  21.2 °C 54.7 °F /  12.6 °C 29.70in /  1005.6hPa Calm   3.0mph /  4.8km/h 58% 0.00in /  0mm
16:19 70.3 °F /  21.3 °C 54.8 °F /  12.7 °C 29.70in /  1005.6hPa Calm   1.0mph /  1.6km/h 58% 0.00in /  0mm
16:24 70.8 °F /  21.6 °C 51.8 °F /  11 °C 29.69in /  1005.3hPa SW 3.0mph /  4.8km/h 5.0mph /  8km/h 51% 0.00in /  0mm
16:29 71.0 °F /  21.7 °C 54.5 °F /  12.5 °C 29.69in /  1005.3hPa Calm   5.0mph /  8km/h 56% 0.00in /  0mm
16:34 71.4 °F /  21.9 °C 54.9 °F /  12.7 °C 29.68in /  1005hPa WSW 1.0mph /  1.6km/h 4.0mph /  6.4km/h 56% 0.00in /  0mm
16:39 71.7 °F /  22.1 °C 53.7 °F /  12.1 °C 29.68in /  1005hPa NW 3.0mph /  4.8km/h 6.0mph /  9.7km/h 53% 0.00in /  0mm
16:44 70.9 °F /  21.6 °C 54.9 °F /  12.7 °C 29.68in /  1005hPa NW 1.0mph /  1.6km/h 6.0mph /  9.7km/h 57% 0.00in /  0mm
16:49 70.1 °F /  21.2 °C 53.2 °F /  11.8 °C 29.68in /  1005hPa NW 2.0mph /  3.2km/h 6.0mph /  9.7km/h 55% 0.00in /  0mm
16:54 69.5 °F /  20.8 °C 53.6 °F /  12 °C 29.68in /  1005hPa NW 1.0mph /  1.6km/h 5.0mph /  8km/h 57% 0.00in /  0mm
16:59 69.1 °F /  20.6 °C 53.7 °F /  12.1 °C 29.68in /  1005hPa Calm   3.0mph /  4.8km/h 58% 0.00in /  0mm
17:04 68.8 °F /  20.4 °C 53.9 °F /  12.2 °C 29.68in /  1005hPa Calm     59% 0.00in /  0mm
17:09 68.7 °F /  20.4 °C 57.3 °F /  14.1 °C 29.67in /  1004.6hPa Calm     67% 0.00in /  0mm
17:14 67.1 °F /  19.5 °C 57.4 °F /  14.1 °C 29.67in /  1004.6hPa NW 1.0mph /  1.6km/h 3.0mph /  4.8km/h 71% 0.01in /  0.3mm
17:19 65.9 °F /  18.8 °C 57.4 °F /  14.1 °C 29.68in /  1005hPa Calm   3.0mph /  4.8km/h 74% 0.01in /  0.3mm
17:24 64.8 °F /  18.2 °C 57.4 °F /  14.1 °C 29.68in /  1005hPa Calm   1.0mph /  1.6km/h 77% 0.01in /  0.3mm
17:29 63.9 °F /  17.7 °C 57.6 °F /  14.2 °C 29.68in /  1005hPa Calm     80% 0.01in /  0.3mm
17:34 63.3 °F /  17.4 °C 57.4 °F /  14.1 °C 29.69in /  1005.3hPa Calm     81% 0.01in /  0.3mm
17:39 62.9 °F /  17.2 °C 57.3 °F /  14.1 °C 29.69in /  1005.3hPa Calm   3.0mph /  4.8km/h 82% 0.01in /  0.3mm
17:44 62.4 °F /  16.9 °C 56.8 °F /  13.8 °C 29.69in /  1005.3hPa WNW 1.0mph /  1.6km/h 5.0mph /  8km/h 82% 0.01in /  0.3mm
17:49 62.2 °F /  16.8 °C 56.6 °F /  13.7 °C 29.69in /  1005.3hPa Calm   5.0mph /  8km/h 82% 0.01in /  0.3mm
17:54 62.0 °F /  16.7 °C 56.8 °F /  13.8 °C 29.69in /  1005.3hPa Calm   2.0mph /  3.2km/h 83% 0.01in /  0.3mm
17:59 61.8 °F /  16.6 °C 56.6 °F /  13.7 °C 29.69in /  1005.3hPa Calm   2.0mph /  3.2km/h 83% 0.01in /  0.3mm
18:04 61.5 °F /  16.4 °C 56.6 °F /  13.7 °C 29.69in /  1005.3hPa Calm   2.0mph /  3.2km/h 84% 0.01in /  0.3mm
18:09 61.2 °F /  16.2 °C 56.3 °F /  13.5 °C 29.69in /  1005.3hPa Calm   1.0mph /  1.6km/h 84% 0.01in /  0.3mm
18:14 60.9 °F /  16.1 °C 56.0 °F /  13.3 °C 29.69in /  1005.3hPa Calm     84% 0.01in /  0.3mm
18:19 60.5 °F /  15.8 °C 56.0 °F /  13.3 °C 29.69in /  1005.3hPa Calm     85% 0.01in /  0.3mm
18:24 60.2 °F /  15.7 °C 56.0 °F /  13.3 °C 29.69in /  1005.3hPa Calm     86% 0.01in /  0.3mm
18:29 60.0 °F /  15.6 °C 55.8 °F /  13.2 °C 29.69in /  1005.3hPa Calm   1.0mph /  1.6km/h 86% 0.01in /  0.3mm
18:39 59.5 °F /  15.3 °C 55.3 °F /  12.9 °C 29.69in /  1005.3hPa Calm   1.0mph /  1.6km/h 86% 0.01in /  0.3mm
18:44 59.2 °F /  15.1 °C 55.0 °F /  12.8 °C 29.69in /  1005.3hPa Calm   1.0mph /  1.6km/h 86% 0.01in /  0.3mm
18:49 59.0 °F /  15 °C 55.1 °F /  12.8 °C 29.70in /  1005.6hPa Calm   1.0mph /  1.6km/h 87% 0.01in /  0.3mm
18:54 59.0 °F /  15 °C 55.1 °F /  12.8 °C 29.71in /  1006hPa Calm   1.0mph /  1.6km/h 87% 0.02in /  0.5mm
18:59 59.0 °F /  15 °C 55.1 °F /  12.8 °C 29.72in /  1006.3hPa WNW 9.0mph /  14.5km/h 19.0mph /  30.6km/h 87% 0.10in /  2.5mm
19:04 58.6 °F /  14.8 °C 54.4 °F /  12.4 °C 29.71in /  1006hPa NW 3.0mph /  4.8km/h 19.0mph /  30.6km/h 86% 0.17in /  4.3mm
19:09 58.4 °F /  14.7 °C 54.5 °F /  12.5 °C 29.72in /  1006.3hPa NW 1.0mph /  1.6km/h 16.0mph /  25.7km/h 87% 0.18in /  4.6mm
19:14 58.3 °F /  14.6 °C 54.5 °F /  12.5 °C 29.69in /  1005.3hPa WNW 2.0mph /  3.2km/h 4.0mph /  6.4km/h 87% 0.21in /  5.3mm
19:24 57.9 °F /  14.4 °C 54.4 °F /  12.4 °C 29.72in /  1006.3hPa WNW 2.0mph /  3.2km/h 5.0mph /  8km/h 88% 0.22in /  5.6mm
19:29 57.7 °F /  14.3 °C 54.5 °F /  12.5 °C 29.72in /  1006.3hPa Calm   4.0mph /  6.4km/h 89% 0.23in /  5.8mm
19:34 57.6 °F /  14.2 °C 54.7 °F /  12.6 °C 29.73in /  1006.7hPa WSW 2.0mph /  3.2km/h 4.0mph /  6.4km/h 90% 0.24in /  6.1mm
19:39 57.2 °F /  14 °C 54.0 °F /  12.2 °C 29.73in /  1006.7hPa West 7.0mph /  11.3km/h 13.0mph /  20.9km/h 89% 0.24in /  6.1mm
19:44 56.9 °F /  13.8 °C 53.4 °F /  11.9 °C 29.73in /  1006.7hPa WSW 5.0mph /  8km/h 15.0mph /  24.1km/h 88% 0.24in /  6.1mm
19:49 56.8 °F /  13.8 °C 53.3 °F /  11.8 °C 29.73in /  1006.7hPa SW 3.0mph /  4.8km/h 15.0mph /  24.1km/h 88% 0.24in /  6.1mm
19:54 56.6 °F /  13.7 °C 53.4 °F /  11.9 °C 29.73in /  1006.7hPa WSW 2.0mph /  3.2km/h 8.0mph /  12.9km/h 89% 0.24in /  6.1mm
19:59 56.5 °F /  13.6 °C 53.3 °F /  11.8 °C 29.73in /  1006.7hPa WSW 3.0mph /  4.8km/h 8.0mph /  12.9km/h 89% 0.26in /  6.6mm
20:04 56.4 °F /  13.6 °C 53.2 °F /  11.8 °C 29.72in /  1006.3hPa SW 2.0mph /  3.2km/h 7.0mph /  11.3km/h 89% 0.27in /  6.9mm
20:09 56.4 °F /  13.6 °C 53.2 °F /  11.8 °C 29.73in /  1006.7hPa West 2.0mph /  3.2km/h 6.0mph /  9.7km/h 89% 0.28in /  7.1mm
20:14 56.4 °F /  13.6 °C 53.2 °F /  11.8 °C 29.72in /  1006.3hPa WSW 2.0mph /  3.2km/h 6.0mph /  9.7km/h 89% 0.28in /  7.1mm
20:19 56.4 °F /  13.6 °C 53.5 °F /  11.9 °C 29.71in /  1006hPa SSW 2.0mph /  3.2km/h 5.0mph /  8km/h 90% 0.28in /  7.1mm
20:24 56.3 °F /  13.5 °C 53.1 °F /  11.7 °C 29.71in /  1006hPa SSW 1.0mph /  1.6km/h 5.0mph /  8km/h 89% 0.28in /  7.1mm
20:29 56.2 °F /  13.4 °C 53.0 °F /  11.7 °C 29.72in /  1006.3hPa SSW 1.0mph /  1.6km/h 5.0mph /  8km/h 89% 0.28in /  7.1mm
20:34 55.9 °F /  13.3 °C 52.7 °F /  11.5 °C 29.72in /  1006.3hPa SSW 1.0mph /  1.6km/h 4.0mph /  6.4km/h 89% 0.28in /  7.1mm
20:39 55.6 °F /  13.1 °C 52.4 °F /  11.3 °C 29.72in /  1006.3hPa SSW 2.0mph /  3.2km/h 6.0mph /  9.7km/h 89% 0.28in /  7.1mm
20:44 55.4 °F /  13 °C 53.1 °F /  11.7 °C 29.72in /  1006.3hPa SSW 2.0mph /  3.2km/h 6.0mph /  9.7km/h 92% 0.28in /  7.1mm
20:49 55.2 °F /  12.9 °C 52.0 °F /  11.1 °C 29.72in /  1006.3hPa Calm   5.0mph /  8km/h 89% 0.28in /  7.1mm
20:54 54.9 °F /  12.7 °C 52.0 °F /  11.1 °C 29.72in /  1006.3hPa SSW 1.0mph /  1.6km/h 4.0mph /  6.4km/h 90% 0.28in /  7.1mm
20:59 54.8 °F /  12.7 °C 51.9 °F /  11.1 °C 29.72in /  1006.3hPa Calm   4.0mph /  6.4km/h 90% 0.28in /  7.1mm
21:04 54.5 °F /  12.5 °C 51.6 °F /  10.9 °C 29.72in /  1006.3hPa SSW 1.0mph /  1.6km/h 3.0mph /  4.8km/h 90% 0.28in /  7.1mm
21:09 54.1 °F /  12.3 °C 51.2 °F /  10.7 °C 29.73in /  1006.7hPa Calm   3.0mph /  4.8km/h 90% 0.28in /  7.1mm
21:14 54.0 °F /  12.2 °C 51.1 °F /  10.6 °C 29.73in /  1006.7hPa SSW 1.0mph /  1.6km/h 4.0mph /  6.4km/h 90% 0.28in /  7.1mm
21:19 53.7 °F /  12.1 °C 50.8 °F /  10.4 °C 29.73in /  1006.7hPa SW 1.0mph /  1.6km/h 5.0mph /  8km/h 90% 0.28in /  7.1mm
21:24 53.8 °F /  12.1 °C 51.2 °F /  10.7 °C 29.74in /  1007hPa WSW 2.0mph /  3.2km/h 5.0mph /  8km/h 91% 0.28in /  7.1mm
21:29 53.7 °F /  12.1 °C 51.1 °F /  10.6 °C 29.74in /  1007hPa West 1.0mph /  1.6km/h 7.0mph /  11.3km/h 91% 0.28in /  7.1mm
21:34 53.8 °F /  12.1 °C 51.2 °F /  10.7 °C 29.74in /  1007hPa Calm   7.0mph /  11.3km/h 91% 0.28in /  7.1mm
21:39 53.8 °F /  12.1 °C 51.2 °F /  10.7 °C 29.74in /  1007hPa Calm   2.0mph /  3.2km/h 91% 0.28in /  7.1mm
21:44 53.8 °F /  12.1 °C 51.2 °F /  10.7 °C 29.74in /  1007hPa Calm   2.0mph /  3.2km/h 91% 0.28in /  7.1mm
21:49 53.8 °F /  12.1 °C 51.2 °F /  10.7 °C 29.74in /  1007hPa Calm   4.0mph /  6.4km/h 91% 0.28in /  7.1mm
21:54 53.9 °F /  12.2 °C 51.3 °F /  10.7 °C 29.75in /  1007.3hPa Calm   4.0mph /  6.4km/h 91% 0.28in /  7.1mm
21:59 53.8 °F /  12.1 °C 51.2 °F /  10.7 °C 29.74in /  1007hPa Calm   3.0mph /  4.8km/h 91% 0.28in /  7.1mm
22:04 53.6 °F /  12 °C 51.0 °F /  10.6 °C 29.75in /  1007.3hPa Calm   1.0mph /  1.6km/h 91% 0.28in /  7.1mm
22:09 53.7 °F /  12.1 °C 51.4 °F /  10.8 °C 29.75in /  1007.3hPa Calm   3.0mph /  4.8km/h 92% 0.28in /  7.1mm
22:14 53.7 °F /  12.1 °C 51.4 °F /  10.8 °C 29.75in /  1007.3hPa Calm   3.0mph /  4.8km/h 92% 0.28in /  7.1mm
22:19 53.8 °F /  12.1 °C 51.5 °F /  10.8 °C 29.75in /  1007.3hPa Calm   5.0mph /  8km/h 92% 0.28in /  7.1mm
22:24 53.8 °F /  12.1 °C 51.5 °F /  10.8 °C 29.75in /  1007.3hPa Calm   5.0mph /  8km/h 92% 0.28in /  7.1mm
22:29 53.7 °F /  12.1 °C 51.4 °F /  10.8 °C 29.76in /  1007.7hPa Calm   3.0mph /  4.8km/h 92% 0.28in /  7.1mm
22:34 53.6 °F /  12 °C 51.3 °F /  10.7 °C 29.76in /  1007.7hPa Calm   1.0mph /  1.6km/h 92% 0.28in /  7.1mm
22:39 53.6 °F /  12 °C 51.3 °F /  10.7 °C 29.76in /  1007.7hPa Calm   1.0mph /  1.6km/h 92% 0.28in /  7.1mm
22:44 53.5 °F /  11.9 °C 51.2 °F /  10.7 °C 29.76in /  1007.7hPa SW 1.0mph /  1.6km/h 3.0mph /  4.8km/h 92% 0.28in /  7.1mm
22:49 53.4 °F /  11.9 °C 51.1 °F /  10.6 °C 29.76in /  1007.7hPa Calm   3.0mph /  4.8km/h 92% 0.28in /  7.1mm
22:54 53.1 °F /  11.7 °C 50.8 °F /  10.4 °C 29.76in /  1007.7hPa Calm   3.0mph /  4.8km/h 92% 0.28in /  7.1mm
22:59 52.8 °F /  11.6 °C 50.5 °F /  10.3 °C 29.76in /  1007.7hPa Calm   2.0mph /  3.2km/h 92% 0.28in /  7.1mm
23:04 52.6 °F /  11.4 °C 50.3 °F /  10.2 °C 29.77in /  1008hPa SW 1.0mph /  1.6km/h 3.0mph /  4.8km/h 92% 0.28in /  7.1mm
23:09 52.3 °F /  11.3 °C 50.0 °F /  10 °C 29.77in /  1008hPa SW 1.0mph /  1.6km/h 3.0mph /  4.8km/h 92% 0.28in /  7.1mm
23:14 52.3 °F /  11.3 °C 50.0 °F /  10 °C 29.77in /  1008hPa Calm   4.0mph /  6.4km/h 92% 0.28in /  7.1mm
23:19 52.2 °F /  11.2 °C 49.9 °F /  9.9 °C 29.77in /  1008hPa Calm   4.0mph /  6.4km/h 92% 0.28in /  7.1mm
23:24 52.1 °F /  11.2 °C 49.8 °F /  9.9 °C 29.77in /  1008hPa Calm   1.0mph /  1.6km/h 92% 0.28in /  7.1mm
23:29 51.9 °F /  11.1 °C 49.7 °F /  9.8 °C 29.77in /  1008hPa Calm   1.0mph /  1.6km/h 92% 0.28in /  7.1mm
23:34 51.6 °F /  10.9 °C 49.4 °F /  9.7 °C 29.77in /  1008hPa Calm     92% 0.28in /  7.1mm
23:39 51.4 °F /  10.8 °C 49.2 °F /  9.6 °C 29.77in /  1008hPa Calm     92% 0.28in /  7.1mm
23:44 51.1 °F /  10.6 °C 48.9 °F /  9.4 °C 29.77in /  1008hPa Calm     92% 0.28in /  7.1mm
23:49 50.9 °F /  10.5 °C 48.7 °F /  9.3 °C 29.77in /  1008hPa Calm     92% 0.28in /  7.1mm
23:54 50.8 °F /  10.4 °C 48.6 °F /  9.2 °C 29.77in /  1008hPa Calm   1.0mph /  1.6km/h 92% 0.28in /  7.1mm
23:59 51.0 °F /  10.6 °C 49.0 °F /  9.4 °C 29.78in /  1008.4hPa Calm   1.0mph /  1.6km/h 93% 0.28in /  7.1mm
Westford Weather
Compliments of Weather Underground

 
 
Current Radar Loop:

Copyright © WestfordWeather.net 2007-2014. All rights reserved.